createdAt,value
2018-12-30T00:01:09.818Z,101666.46
2018-12-30T00:03:39.788Z,101666.07
2018-12-30T00:06:09.310Z,101673.47
2018-12-30T00:08:38.949Z,101678.84
2018-12-30T00:11:08.590Z,101682.23
2018-12-30T00:13:38.114Z,101683.09
2018-12-30T00:16:08.113Z,101685.79
2018-12-30T00:18:37.633Z,101685.33
2018-12-30T00:21:09.076Z,101695.86
2018-12-30T00:23:38.358Z,101707.72
2018-12-30T00:26:07.757Z,101719.42
2018-12-30T00:28:37.037Z,101720.84
2018-12-30T00:31:07.284Z,101731.52
2018-12-30T00:33:36.681Z,101747.91
2018-12-30T00:36:06.560Z,101755.66
2018-12-30T00:38:36.201Z,101763.72
2018-12-30T00:41:05.845Z,101764.77
2018-12-30T00:43:35.483Z,101774.88
2018-12-30T00:46:05.125Z,101777.99
2018-12-30T00:48:34.766Z,101811.42
2018-12-30T00:51:04.121Z,101789.66
2018-12-30T00:53:33.568Z,101810.84
2018-12-30T00:56:02.850Z,101826.73
2018-12-30T00:58:32.369Z,101833.77
2018-12-30T01:01:01.891Z,101846.02
2018-12-30T01:03:31.172Z,101845.22
2018-12-30T01:06:00.453Z,101859.69
2018-12-30T01:08:30.095Z,101864.64
2018-12-30T01:10:59.378Z,101875.38
2018-12-30T01:13:29.019Z,101881.34
2018-12-30T01:15:59.518Z,101894.91
2018-12-30T01:18:29.878Z,101895.56
2018-12-30T01:21:00.355Z,101903.52
2018-12-30T01:23:31.183Z,101906.66
2018-12-30T01:26:01.687Z,101915.56
2018-12-30T01:28:32.033Z,101926.97
2018-12-30T01:31:02.514Z,101925.68
2018-12-30T01:33:32.878Z,101933.69
2018-12-30T01:36:03.113Z,101929.88
2018-12-30T01:38:33.238Z,101958.87
2018-12-30T01:41:03.360Z,101956.49
2018-12-30T01:43:33.595Z,101965.05
2018-12-30T01:46:03.953Z,101975.28
2018-12-30T01:48:54.954Z,101983.36
2018-12-30T01:51:32.854Z,101997.50
2018-12-30T01:53:56.776Z,102013.67
2018-12-30T01:56:26.876Z,102020.02
2018-12-30T01:58:56.877Z,102020.54
2018-12-30T02:01:26.898Z,102035.56
2018-12-30T02:03:56.644Z,102052.95
2018-12-30T02:06:27.241Z,102060.19
2018-12-30T02:08:57.240Z,102067.02
2018-12-30T02:11:27.001Z,102079.86
2018-12-30T02:13:56.642Z,102080.89
2018-12-30T02:16:26.782Z,102089.33
2018-12-30T02:18:56.404Z,102099.19
2018-12-30T02:21:26.526Z,102113.47
2018-12-30T02:23:56.539Z,102110.59
2018-12-30T02:26:26.530Z,102121.02
2018-12-30T02:28:56.544Z,102125.92
2018-12-30T02:31:26.170Z,102140.78
2018-12-30T02:33:56.412Z,102139.64
2018-12-30T02:36:25.944Z,102146.62
2018-12-30T02:38:55.454Z,102155.06
2018-12-30T02:41:27.748Z,102158.78
2018-12-30T02:43:57.857Z,102162.95
2018-12-30T02:46:27.636Z,102166.91
2018-12-30T02:48:57.140Z,102174.78
2018-12-30T02:51:29.902Z,102173.22
2018-12-30T02:53:59.422Z,102177.61
2018-12-30T02:56:28.944Z,102191.56
2018-12-30T02:58:58.765Z,102182.02
2018-12-30T03:01:28.345Z,102194.75
2018-12-30T03:03:57.750Z,102188.28
2018-12-30T03:06:27.387Z,102199.70
2018-12-30T03:08:57.508Z,102211.28
2018-12-30T03:11:26.910Z,102212.19
2018-12-30T03:13:56.308Z,102217.50
2018-12-30T03:16:25.566Z,102213.75
2018-12-30T03:18:54.751Z,102224.61
2018-12-30T03:21:23.911Z,102229.35
2018-12-30T03:23:53.042Z,102222.94
2018-12-30T03:26:22.205Z,102221.69
2018-12-30T03:28:51.669Z,102221.38
2018-12-30T03:31:21.431Z,102227.13
2018-12-30T03:33:51.191Z,102233.91
2018-12-30T03:36:20.952Z,102237.45
2018-12-30T03:38:50.231Z,102244.16
2018-12-30T03:41:19.634Z,102241.39
2018-12-30T03:43:48.915Z,102256.70
2018-12-30T03:46:18.196Z,102261.45
2018-12-30T03:48:47.836Z,102256.25
2018-12-30T03:51:17.116Z,102263.67
2018-12-30T03:53:46.519Z,102264.98
2018-12-30T03:56:15.800Z,102273.83
2018-12-30T03:58:45.443Z,102268.92
2018-12-30T04:01:14.722Z,102272.02
2018-12-30T04:03:44.004Z,102272.87
2018-12-30T04:06:13.283Z,102283.38
2018-12-30T04:08:42.565Z,102281.21
2018-12-30T04:11:11.846Z,102292.03
2018-12-30T04:13:41.127Z,102298.09
2018-12-30T04:16:15.465Z,102302.45
2018-12-30T04:18:46.080Z,102308.61
2018-12-30T04:21:16.552Z,102306.70
2018-12-30T04:23:47.148Z,102310.09
2018-12-30T04:26:17.518Z,102305.74
2018-12-30T04:28:47.989Z,102318.39
2018-12-30T04:31:18.227Z,102316.98
2018-12-30T04:33:47.540Z,102334.07
2018-12-30T04:36:17.322Z,102338.82
2018-12-30T04:38:46.949Z,102342.36
2018-12-30T04:41:16.711Z,102341.95
2018-12-30T04:43:46.465Z,102344.08
2018-12-30T04:46:16.236Z,102352.83
2018-12-30T04:48:45.873Z,102356.77
2018-12-30T04:51:15.150Z,102359.91
2018-12-30T04:53:44.438Z,102363.34
2018-12-30T04:56:14.193Z,102369.33
2018-12-30T04:58:43.469Z,102376.34
2018-12-30T05:01:12.872Z,102368.86
2018-12-30T05:03:42.273Z,102373.71
2018-12-30T05:06:11.553Z,102382.06
2018-12-30T05:08:40.841Z,102395.97
2018-12-30T05:11:10.720Z,102391.31
2018-12-30T05:13:40.116Z,102393.84
2018-12-30T05:16:09.886Z,102403.50
2018-12-30T05:18:40.119Z,102404.77
2018-12-30T05:21:09.883Z,102406.03
2018-12-30T05:23:39.788Z,102407.76
2018-12-30T05:26:09.794Z,102416.45
2018-12-30T05:28:39.643Z,102420.81
2018-12-30T05:31:09.284Z,102416.45
2018-12-30T05:33:38.930Z,102412.52
2018-12-30T05:36:08.809Z,102422.59
2018-12-30T05:38:38.567Z,102416.78
2018-12-30T05:41:08.344Z,102428.20
2018-12-30T05:43:37.977Z,102423.27
2018-12-30T05:46:08.089Z,102429.52
2018-12-30T05:48:37.909Z,102435.59
2018-12-30T05:51:07.732Z,102436.09
2018-12-30T05:53:37.373Z,102440.36
2018-12-30T05:56:07.016Z,102446.06
2018-12-30T05:58:36.416Z,102457.40
2018-12-30T06:01:06.658Z,102456.49
2018-12-30T06:03:36.058Z,102463.61
2018-12-30T06:06:05.700Z,102466.92
2018-12-30T06:08:35.219Z,102473.45
2018-12-30T06:11:05.102Z,102482.56
2018-12-30T06:13:34.622Z,102483.80
2018-12-30T06:16:04.143Z,102486.88
2018-12-30T06:18:34.035Z,102486.47
2018-12-30T06:21:03.547Z,102490.81
2018-12-30T06:23:33.067Z,102488.51
2018-12-30T06:26:02.707Z,102487.11
2018-12-30T06:28:32.108Z,102495.00
2018-12-30T06:31:01.509Z,102502.47
2018-12-30T06:33:30.909Z,102495.44
2018-12-30T06:36:00.311Z,102505.97
2018-12-30T06:38:30.073Z,102517.30
2018-12-30T06:40:59.596Z,102528.65
2018-12-30T06:43:29.113Z,102529.96
2018-12-30T06:45:59.119Z,102540.08
2018-12-30T06:48:28.760Z,102545.83
2018-12-30T06:50:58.278Z,102550.51
2018-12-30T06:56:59.892Z,102564.53
2018-12-30T06:59:29.602Z,102564.53
2018-12-30T07:02:00.333Z,102571.97
2018-12-30T07:04:30.205Z,102564.08
2018-12-30T07:06:59.966Z,102570.66
2018-12-30T07:09:30.090Z,102569.70
2018-12-30T07:11:59.846Z,102577.19
2018-12-30T07:14:29.608Z,102576.33
2018-12-30T07:16:59.489Z,102582.91
2018-12-30T07:19:29.131Z,102590.84
2018-12-30T07:21:59.132Z,102588.26
2018-12-30T07:24:29.015Z,102589.30
2018-12-30T07:26:58.893Z,102595.38
2018-12-30T07:29:28.775Z,102595.33
2018-12-30T07:31:59.024Z,102588.84
2018-12-30T07:34:29.017Z,102584.03
2018-12-30T07:36:59.174Z,102591.97
2018-12-30T07:39:29.261Z,102592.78
2018-12-30T07:41:59.412Z,102593.15
2018-12-30T07:44:29.292Z,102592.28
2018-12-30T07:46:59.415Z,102589.66
2018-12-30T07:49:29.893Z,102586.12
2018-12-30T07:52:00.254Z,102589.66
2018-12-30T07:54:30.616Z,102593.94
2018-12-30T07:57:02.295Z,102595.25
2018-12-30T07:59:33.012Z,102597.88
2018-12-30T08:02:03.870Z,102596.10
2018-12-30T08:04:34.575Z,102595.61
2018-12-30T08:07:08.535Z,102594.20
2018-12-30T08:09:39.254Z,102598.20
2018-12-30T08:12:10.098Z,102593.39
2018-12-30T08:14:40.935Z,102598.55
2018-12-30T08:17:11.783Z,102602.10
2018-12-30T08:19:42.501Z,102608.23
2018-12-30T08:22:12.859Z,102612.63
2018-12-30T08:24:43.216Z,102602.50
2018-12-30T08:27:13.582Z,102607.81
2018-12-30T08:29:44.177Z,102611.67
2018-12-30T08:32:14.540Z,102613.45
2018-12-30T08:34:44.897Z,102610.36
2018-12-30T08:37:15.257Z,102614.34
2018-12-30T08:39:46.699Z,102611.67
2018-12-30T08:42:17.903Z,102613.40
2018-12-30T08:44:48.265Z,102611.18
2018-12-30T08:47:19.963Z,102611.95
2018-12-30T08:49:50.297Z,102612.04
2018-12-30T08:52:21.267Z,102612.95
2018-12-30T08:54:51.385Z,102619.16
2018-12-30T08:57:21.379Z,102619.53
2018-12-30T08:59:51.979Z,102629.19
2018-12-30T09:02:21.872Z,102626.44
2018-12-30T09:04:51.498Z,102622.56
2018-12-30T09:07:21.262Z,102627.38
2018-12-30T09:09:51.022Z,102633.51
2018-12-30T09:12:21.407Z,102637.41
2018-12-30T09:14:51.503Z,102622.47
2018-12-30T09:17:21.623Z,102630.37
2018-12-30T09:19:51.385Z,102634.33
2018-12-30T09:22:23.812Z,102631.61
2018-12-30T09:24:57.873Z,102643.91
2018-12-30T09:27:30.045Z,102641.27
2018-12-30T09:30:00.869Z,102643.81
2018-12-30T09:32:30.781Z,102650.80
2018-12-30T09:35:03.635Z,102658.94
2018-12-30T09:37:46.606Z,102659.39
2018-12-30T09:40:27.875Z,102661.94
2018-12-30T09:42:58.968Z,102668.84
2018-12-30T09:45:29.721Z,102658.03
2018-12-30T09:48:02.448Z,102665.80
2018-12-30T09:50:34.848Z,102660.89
2018-12-30T09:53:07.732Z,102659.90
2018-12-30T09:55:37.492Z,102665.16
2018-12-30T09:58:10.255Z,102678.19
2018-12-30T10:00:39.901Z,102680.73
2018-12-30T10:03:14.328Z,102683.77
2018-12-30T10:05:47.324Z,102686.27
2018-12-30T10:08:19.863Z,102674.52
2018-12-30T10:10:49.846Z,102669.16
2018-12-30T10:13:20.688Z,102677.86
2018-12-30T10:15:50.360Z,102672.46
2018-12-30T10:18:22.970Z,102671.15
2018-12-30T10:20:52.742Z,102665.42
2018-12-30T10:23:22.623Z,102666.23
2018-12-30T10:25:52.251Z,102665.83
2018-12-30T10:28:26.093Z,102662.78
2018-12-30T10:30:55.375Z,102657.97
2018-12-30T10:33:28.016Z,102671.55
2018-12-30T10:35:57.417Z,102680.37
2018-12-30T10:38:26.822Z,102675.96
2018-12-30T10:40:56.218Z,102683.77
2018-12-30T10:43:25.499Z,102694.30
2018-12-30T10:45:54.901Z,102694.30
2018-12-30T10:48:24.302Z,102681.95
2018-12-30T10:50:53.582Z,102681.45
2018-12-30T10:53:22.985Z,102682.71
2018-12-30T10:55:52.265Z,102674.77
2018-12-30T10:58:21.786Z,102674.67
2018-12-30T11:00:51.073Z,102671.12
2018-12-30T11:03:20.468Z,102679.34
2018-12-30T11:05:50.110Z,102673.61
2018-12-30T11:08:19.389Z,102667.42
2018-12-30T11:10:48.792Z,102670.87
2018-12-30T11:13:18.073Z,102673.96
2018-12-30T11:15:47.953Z,102677.96
2018-12-30T11:18:17.236Z,102674.42
2018-12-30T11:20:46.635Z,102677.33
2018-12-30T11:23:15.919Z,102675.98
2018-12-30T11:25:45.196Z,102681.27
2018-12-30T11:28:14.479Z,102684.87
2018-12-30T11:30:43.760Z,102680.05
2018-12-30T11:33:13.041Z,102673.92
2018-12-30T11:36:12.328Z,102682.23
2018-12-30T11:38:41.842Z,102685.33
2018-12-30T11:41:11.123Z,102682.23
2018-12-30T11:43:40.529Z,102674.73
2018-12-30T11:46:10.286Z,102672.04
2018-12-30T11:48:40.047Z,102677.78
2018-12-30T11:51:09.571Z,102671.58
2018-12-30T11:53:39.812Z,102675.03
2018-12-30T11:56:09.214Z,102673.27
2018-12-30T11:58:38.617Z,102677.67
2018-12-30T12:01:07.894Z,102675.08
2018-12-30T12:03:37.294Z,102675.03
2018-12-30T12:06:06.940Z,102665.45
2018-12-30T12:08:36.335Z,102675.98
2018-12-30T12:11:05.977Z,102687.35
2018-12-30T12:13:36.577Z,102689.58
2018-12-30T12:16:05.980Z,102680.77
2018-12-30T12:18:35.499Z,102689.12
2018-12-30T12:21:05.261Z,102693.08
2018-12-30T12:23:35.029Z,102703.08
2018-12-30T12:26:12.644Z,102697.44
2018-12-30T12:28:42.104Z,102690.76
2018-12-30T12:31:11.506Z,102691.63
2018-12-30T12:33:40.787Z,102698.26
2018-12-30T12:36:10.188Z,102691.30
2018-12-30T12:38:39.716Z,102699.67
2018-12-30T12:41:08.992Z,102697.44
2018-12-30T12:43:38.641Z,102700.44
2018-12-30T12:46:08.044Z,102697.84
2018-12-30T12:48:37.439Z,102694.77
2018-12-30T12:51:06.971Z,102692.08
2018-12-30T12:53:36.354Z,102686.35
2018-12-30T12:56:06.957Z,102679.76
2018-12-30T12:58:37.077Z,102681.73
2018-12-30T13:01:09.958Z,102691.37
2018-12-30T13:03:39.479Z,102685.13
2018-12-30T13:06:09.000Z,102698.42
2018-12-30T13:08:48.055Z,102683.47
2018-12-30T13:11:17.401Z,102678.79
2018-12-30T13:13:47.044Z,102684.56
2018-12-30T13:16:16.330Z,102684.47
2018-12-30T13:18:45.604Z,102683.66
2018-12-30T13:21:14.887Z,102686.76
2018-12-30T13:23:44.290Z,102692.47
2018-12-30T13:26:13.688Z,102690.66
2018-12-30T13:28:42.969Z,102681.93
2018-12-30T13:31:12.370Z,102681.02
2018-12-30T13:33:41.893Z,102691.56
2018-12-30T13:36:12.613Z,102699.88
2018-12-30T13:38:42.014Z,102705.15
2018-12-30T13:41:11.539Z,102713.47
2018-12-30T13:43:41.178Z,102727.06
2018-12-30T13:46:10.817Z,102731.92
2018-12-30T13:48:40.938Z,102724.52
2018-12-30T13:54:38.542Z,102729.28
2018-12-30T13:57:07.822Z,102709.92
2018-12-30T13:59:38.454Z,102708.61
2018-12-30T14:02:07.705Z,102697.24
2018-12-30T14:04:37.105Z,102683.24
2018-12-30T14:07:06.507Z,102686.44
2018-12-30T14:09:35.788Z,102698.71
2018-12-30T14:12:05.430Z,102709.41
2018-12-30T14:14:34.950Z,102701.91
2018-12-30T14:17:04.352Z,102701.50
2018-12-30T14:19:33.634Z,102702.14
2018-12-30T14:22:02.914Z,102708.27
2018-12-30T14:24:32.437Z,102717.64
2018-12-30T14:27:01.716Z,102727.77
2018-12-30T14:29:31.117Z,102727.36
2018-12-30T14:32:00.638Z,102739.77
2018-12-30T14:34:30.039Z,102733.69
2018-12-30T14:36:59.439Z,102725.83
2018-12-30T14:39:28.721Z,102733.41
2018-12-30T14:41:58.363Z,102749.63
2018-12-30T14:44:27.643Z,102753.67
2018-12-30T14:46:57.524Z,102768.07
2018-12-30T14:49:27.646Z,102777.30
2018-12-30T14:51:57.048Z,102768.11
2018-12-30T14:54:26.328Z,102754.54
2018-12-30T14:56:55.848Z,102763.98
2018-12-30T14:59:25.129Z,102755.53
2018-12-30T15:01:54.413Z,102769.73
2018-12-30T15:04:23.811Z,102770.23
2018-12-30T15:06:53.094Z,102782.58
2018-12-30T15:09:22.734Z,102791.31
2018-12-30T15:11:52.016Z,102783.13
2018-12-30T15:14:21.297Z,102791.44
2018-12-30T15:16:51.417Z,102797.77
2018-12-30T15:19:21.059Z,102795.92
2018-12-30T15:21:51.423Z,102804.39
2018-12-30T15:24:20.948Z,102813.20
2018-12-30T15:26:50.704Z,102803.91
2018-12-30T15:29:20.463Z,102812.34
2018-12-30T15:31:50.383Z,102804.88
2018-12-30T15:34:20.120Z,102811.02
2018-12-30T15:36:51.905Z,102809.37
2018-12-30T15:39:21.692Z,102804.30
2018-12-30T15:41:54.553Z,102805.09
2018-12-30T15:44:23.948Z,102814.71
2018-12-30T15:46:53.351Z,102801.01
2018-12-30T15:49:23.233Z,102801.72
2018-12-30T15:51:52.873Z,102810.43
2018-12-30T15:54:22.152Z,102813.03
2018-12-30T15:56:51.794Z,102818.11
2018-12-30T15:59:21.315Z,102812.25
2018-12-30T16:01:50.970Z,102804.88
2018-12-30T16:04:20.236Z,102811.58
2018-12-30T16:06:49.516Z,102817.70
2018-12-30T16:09:18.917Z,102818.56
2018-12-30T16:11:48.201Z,102818.67
2018-12-30T16:14:17.719Z,102825.25
2018-12-30T16:16:47.841Z,102831.39
2018-12-30T16:19:17.602Z,102837.09
2018-12-30T16:21:46.884Z,102842.47
2018-12-30T16:24:16.764Z,102855.56
2018-12-30T16:26:46.405Z,102844.56
2018-12-30T16:29:15.807Z,102859.72
2018-12-30T16:31:45.567Z,102862.91
2018-12-30T16:34:14.848Z,102871.08
2018-12-30T16:36:44.256Z,102872.53
2018-12-30T16:39:13.657Z,102881.71
2018-12-30T16:41:44.252Z,102883.92
2018-12-30T16:44:13.774Z,102885.23
2018-12-30T16:46:43.173Z,102883.02
2018-12-30T16:49:24.576Z,102882.78
2018-12-30T16:51:53.858Z,102891.44
2018-12-30T16:54:23.258Z,102892.85
2018-12-30T16:56:52.902Z,102890.70
2018-12-30T16:59:22.182Z,102890.35
2018-12-30T17:01:51.463Z,102889.80
2018-12-30T17:04:20.743Z,102891.22
2018-12-30T17:06:50.503Z,102894.81
2018-12-30T17:09:20.023Z,102891.38
2018-12-30T17:11:49.306Z,102895.30
2018-12-30T17:14:18.589Z,102892.98
2018-12-30T17:16:48.229Z,102895.88
2018-12-30T17:19:24.116Z,102895.39
2018-12-30T17:21:53.391Z,102893.30
2018-12-30T17:24:22.669Z,102912.13
2018-12-30T17:26:52.180Z,102910.05
2018-12-30T17:29:21.353Z,102913.57
2018-12-30T17:31:50.753Z,102919.25
2018-12-30T17:34:29.875Z,102905.41
2018-12-30T17:36:59.635Z,102928.71
2018-12-30T17:39:28.917Z,102921.42
2018-12-30T17:41:58.319Z,102925.05
2018-12-30T17:44:27.598Z,102927.61
2018-12-30T17:46:57.000Z,102921.61
2018-12-30T17:49:26.761Z,102930.45
2018-12-30T17:51:56.041Z,102932.46
2018-12-30T17:54:25.924Z,102930.17
2018-12-30T17:56:55.205Z,102934.00
2018-12-30T17:59:24.846Z,102932.71
2018-12-30T18:01:54.261Z,102930.80
2018-12-30T18:04:23.888Z,102930.61
2018-12-30T18:06:53.170Z,102935.09
2018-12-30T18:09:22.452Z,102928.09
2018-12-30T18:11:51.855Z,102941.13
2018-12-30T18:14:21.255Z,102931.95
2018-12-30T18:16:50.533Z,102933.27
2018-12-30T18:19:20.655Z,102937.24
2018-12-30T18:21:49.939Z,102940.31
2018-12-30T18:24:19.218Z,102938.33
2018-12-30T18:26:48.618Z,102941.80
2018-12-30T18:29:18.140Z,102938.83
2018-12-30T18:32:03.020Z,102933.61
2018-12-30T18:34:32.541Z,102934.87
2018-12-30T18:37:02.542Z,102936.66
2018-12-30T18:39:31.824Z,102940.34
2018-12-30T18:42:01.586Z,102931.87
2018-12-30T18:44:31.107Z,102924.91
2018-12-30T18:47:00.507Z,102935.31
2018-12-30T18:49:30.148Z,102935.25
2018-12-30T18:51:59.669Z,102935.70
2018-12-30T18:54:28.951Z,102942.19
2018-12-30T18:56:58.234Z,102947.87
2018-12-30T18:59:27.512Z,102951.34
2018-12-30T19:01:56.793Z,102946.08
2018-12-30T19:07:54.636Z,102949.55
2018-12-30T19:10:23.917Z,102949.58
2018-12-30T19:12:53.317Z,102945.37
2018-12-30T19:15:22.600Z,102947.75
2018-12-30T19:17:51.880Z,102939.98
2018-12-30T19:20:21.766Z,102933.80
2018-12-30T19:23:02.685Z,102940.43
2018-12-30T19:25:39.087Z,102941.23
2018-12-30T19:28:19.513Z,102927.84
2018-12-30T19:30:45.166Z,102953.72
2018-12-30T19:33:14.687Z,102948.80
2018-12-30T19:35:44.568Z,102949.63
2018-12-30T19:38:13.849Z,102953.48
2018-12-30T19:40:43.130Z,102936.81
2018-12-30T19:43:12.771Z,102932.54
2018-12-30T19:45:42.532Z,102937.20
2018-12-30T19:48:11.933Z,102937.68
2018-12-30T19:50:41.214Z,102944.48
2018-12-30T19:53:10.495Z,102936.96
2018-12-30T19:55:40.256Z,102928.50
2018-12-30T19:58:09.536Z,102931.95
2018-12-30T20:00:38.818Z,102940.67
2018-12-30T20:03:08.219Z,102943.23
2018-12-30T20:05:37.740Z,102943.69
2018-12-30T20:08:07.143Z,102941.89
2018-12-30T20:10:36.782Z,102943.12
2018-12-30T20:13:09.078Z,102944.02
2018-12-30T20:15:37.386Z,102948.34
2018-12-30T20:18:06.666Z,102941.33
2018-12-30T20:20:35.949Z,102941.35
2018-12-30T20:23:05.228Z,102940.37
2018-12-30T20:25:35.416Z,102939.53
2018-12-30T20:28:04.941Z,102936.80
2018-12-30T20:30:34.275Z,102940.23
2018-12-30T20:33:04.271Z,102932.31
2018-12-30T20:35:33.913Z,102919.67
2018-12-30T20:38:03.195Z,102929.33
2018-12-30T20:40:32.474Z,102933.22
2018-12-30T20:43:09.798Z,102937.58
2018-12-30T20:45:39.199Z,102947.59
2018-12-30T20:48:08.479Z,102954.20
2018-12-30T20:50:37.762Z,102950.63
2018-12-30T20:53:07.160Z,102949.73
2018-12-30T20:55:36.441Z,102948.84
2018-12-30T20:58:05.722Z,102948.45
2018-12-30T21:00:35.004Z,102946.27
2018-12-30T21:03:04.405Z,102945.05
2018-12-30T21:05:33.685Z,102950.73
2018-12-30T21:08:03.087Z,102945.53
2018-12-30T21:10:32.368Z,102947.59
2018-12-30T21:13:01.650Z,102943.73
2018-12-30T21:15:31.050Z,102947.17
2018-12-30T21:18:00.451Z,102943.16
2018-12-30T21:20:33.041Z,102943.16
2018-12-30T21:23:02.373Z,102943.58
2018-12-30T21:25:31.655Z,102943.58
2018-12-30T21:28:01.057Z,102944.02
2018-12-30T21:30:30.339Z,102941.84
2018-12-30T21:32:59.979Z,102946.17
2018-12-30T21:35:29.499Z,102945.75
2018-12-30T21:37:58.780Z,102950.60
2018-12-30T21:40:28.182Z,102959.84
2018-12-30T21:42:57.822Z,102958.11
2018-12-30T21:45:27.706Z,102955.41
2018-12-30T21:47:57.103Z,102938.37
2018-12-30T21:50:26.388Z,102942.00
2018-12-30T21:52:55.785Z,102944.70
2018-12-30T21:55:25.307Z,102941.97
2018-12-30T21:58:15.590Z,102946.30
2018-12-30T22:00:44.991Z,102943.73
2018-12-30T22:03:14.513Z,102937.92
2018-12-30T22:05:43.791Z,102932.63
2018-12-30T22:08:13.072Z,102930.38
2018-12-30T22:10:42.355Z,102934.84
2018-12-30T22:13:11.767Z,102945.02
2018-12-30T22:15:41.396Z,102933.62
2018-12-30T22:18:10.677Z,102941.17
2018-12-30T22:20:40.442Z,102941.55
2018-12-30T22:23:09.840Z,102940.20
2018-12-30T22:25:39.122Z,102943.38
2018-12-30T22:28:08.401Z,102943.18
2018-12-30T22:30:37.683Z,102929.01
2018-12-30T22:33:07.684Z,102933.76
2018-12-30T22:35:36.964Z,102928.91
2018-12-30T22:38:06.246Z,102930.70
2018-12-30T22:40:35.887Z,102941.27
2018-12-30T22:43:05.287Z,102943.00
2018-12-30T22:45:34.568Z,102952.62
2018-12-30T22:48:03.849Z,102946.61
2018-12-30T22:50:33.130Z,102951.45
2018-12-30T22:53:02.653Z,102939.05
2018-12-30T22:55:32.295Z,102941.27
2018-12-30T22:58:01.574Z,102947.36
2018-12-30T23:00:48.856Z,102944.73
2018-12-30T23:03:18.259Z,102934.20
2018-12-30T23:05:47.539Z,102940.52
2018-12-30T23:08:16.818Z,102946.59
2018-12-30T23:10:47.780Z,102948.64
2018-12-30T23:13:20.542Z,102943.00
2018-12-30T23:15:51.522Z,102944.49
2018-12-30T23:18:22.396Z,102933.85
2018-12-30T23:20:53.203Z,102936.42
2018-12-30T23:23:24.043Z,102943.80
2018-12-30T23:25:55.245Z,102944.77
2018-12-30T23:28:25.602Z,102951.03
2018-12-30T23:30:56.446Z,102946.08
2018-12-30T23:33:27.287Z,102948.14
2018-12-30T23:35:58.244Z,102950.27
2018-12-30T23:38:28.609Z,102946.34
2018-12-30T23:40:59.566Z,102950.14
2018-12-30T23:43:29.807Z,102947.94
2018-12-30T23:46:00.165Z,102951.87
2018-12-30T23:48:30.405Z,102949.31
2018-12-30T23:51:00.646Z,102947.06
2018-12-30T23:53:33.889Z,102942.08
2018-12-30T23:56:04.005Z,102936.30
2018-12-30T23:58:34.247Z,102938.94
